»·PEaware :: N151L KBFL-KSBP

N151L :: KBFL-KSBP

FLIGHT INFORMATION

Flight Status: Arrived
Operator: Privately registered:
United States
More flights under this callsign
Pilot: Dean B. (20222)
Aircraft: BEECH AIRCRAFT A90-E90 KING AIR
(BE9L)
More flights by this aircraft type
Origin: KBFL Meadows
United States
Destination: KSBP San Luis Co Regl
United States
More flights between these airports :: More routes between these airports
Route: +
File this flight plan on PilotEdge
Remarks:
Altitude:
(Current/Filed)
10,000ft
Speed:
(Current/Filed)
0kts
Departed: 01-Oct-18 06:57 PM
Arrived: 01-Oct-18 07:33 PM
Distance/Time
Traveled:
78nm/0:36
Distance/Time
To Go:
Arrived

Flight Plot

Page will automatically refresh every two minutes.


Map Options




Map Legend


Flown Route
Filed Route
Departure Airport
Arrival Airport
Navaid (VOR, NDB)
Fix

Horizontal Profiles

Position Reports

Time Latitude Longitude Heading Altitude Ground
Speed
01-Oct-18 18:54 35.426208 -119.042681 179 483ft 0kts
01-Oct-18 18:55 35.426208 -119.042681 179 483ft 0kts
01-Oct-18 18:56 35.426172 -119.042680 179 483ft 2kts
01-Oct-18 18:57 35.425524 -119.044839 263 478ft 0kts
01-Oct-18 18:58 35.425524 -119.044839 263 478ft 0kts
01-Oct-18 18:59 35.436649 -119.059725 313 691ft 126kts
01-Oct-18 19:00 35.451384 -119.094238 332 1076ft 131kts
01-Oct-18 19:01 35.453104 -119.131249 255 1870ft 107kts
01-Oct-18 19:02 35.440344 -119.162443 232 2041ft 141kts
01-Oct-18 19:03 35.420095 -119.195022 238 2737ft 119kts
01-Oct-18 19:04 35.408407 -119.230941 255 3298ft 113kts
01-Oct-18 19:05 35.401784 -119.268731 260 3780ft 114kts
01-Oct-18 19:06 35.396700 -119.307299 261 4230ft 115kts
01-Oct-18 19:07 35.392064 -119.346230 262 4663ft 116kts
01-Oct-18 19:08 35.387536 -119.385410 262 5082ft 116kts
01-Oct-18 19:09 35.382937 -119.425504 262 5457ft 118kts
01-Oct-18 19:10 35.378134 -119.467387 262 6577ft 123kts
01-Oct-18 19:11 35.373372 -119.508762 262 7710ft 123kts
01-Oct-18 19:12 35.368573 -119.550333 262 8753ft 124kts
01-Oct-18 19:13 35.363698 -119.592454 262 9719ft 126kts
01-Oct-18 19:14 35.358727 -119.635277 262 10622ft 128kts
01-Oct-18 19:15 35.353681 -119.678605 261 11464ft 130kts
01-Oct-18 19:16 35.347704 -119.729978 261 11570ft 169kts
01-Oct-18 19:17 35.340586 -119.790732 261 11235ft 183kts
01-Oct-18 19:18 35.333455 -119.851240 261 11018ft 176kts
01-Oct-18 19:19 35.326568 -119.909403 261 10956ft 169kts
01-Oct-18 19:20 35.319870 -119.965744 261 10920ft 166kts
01-Oct-18 19:21 35.313255 -120.021154 261 10901ft 164kts
01-Oct-18 19:22 35.306813 -120.074960 261 10893ft 163kts
01-Oct-18 19:23 35.301287 -120.120919 261 10890ft 163kts
01-Oct-18 19:24 35.293549 -120.185001 261 10888ft 163kts
01-Oct-18 19:25 35.287796 -120.232495 261 10239ft 183kts
01-Oct-18 19:26 35.280426 -120.293057 261 9341ft 179kts
01-Oct-18 19:27 35.273109 -120.352925 261 8446ft 177kts
01-Oct-18 19:28 35.265829 -120.412244 261 7587ft 175kts
01-Oct-18 19:29 35.258620 -120.470764 261 6766ft 173kts
01-Oct-18 19:30 35.251256 -120.529708 259 5482ft 176kts
01-Oct-18 19:31 35.236627 -120.585564 233 3483ft 177kts
01-Oct-18 19:32 35.204914 -120.617823 187 2176ft 111kts
01-Oct-18 19:33 35.197633 -120.602330 338 2005ft 125kts
01-Oct-18 19:34 35.227459 -120.623244 301 839ft 112kts
01-Oct-18 19:35 35.238412 -120.642893 305 181ft 34kts
01-Oct-18 19:36 35.239270 -120.641964 34 182ft 0kts
01-Oct-18 19:37 35.239270 -120.641964 34 182ft 0kts
01-Oct-18 19:38 35.239270 -120.641964 34 182ft 0kts
01-Oct-18 19:39 35.239270 -120.641964 34 182ft 0kts
01-Oct-18 19:40 35.239270 -120.641964 34 182ft 0kts
01-Oct-18 19:41 35.239270 -120.641964 34 182ft 0kts
01-Oct-18 19:42 35.239270 -120.641964 34 182ft 0kts
01-Oct-18 19:43 35.239270 -120.641964 34 182ft 0kts
01-Oct-18 19:44 35.239270 -120.641964 34 182ft 0kts
01-Oct-18 19:45 35.239270 -120.641964 34 182ft 0kts
01-Oct-18 19:46 35.239270 -120.641964 34 182ft 0kts
01-Oct-18 19:47 35.239270 -120.641964 34 182ft 0kts
01-Oct-18 19:48 35.239270 -120.641964 34 182ft 0kts
01-Oct-18 19:49 35.239270 -120.641964 34 182ft 0kts
01-Oct-18 19:50 35.239270 -120.641964 34 182ft 0kts

Navigation Log

Ident Type
1. KBFL Airport
2. KSBP Airport